GATCU FOOL-FOOG
Flight info
| Callsign | GATCU |
|---|---|
| Flight time | 1h 22m |
| Altitude | 3500 |
| Route | VFR |
| Aircraft | BN2/L-DOV/C |
Departure
| Time | 2026-04-13 18:06 |
|---|---|
| Airport | Libreville Leon M'ba International Airport (FOOL) |
Arrival
| Time | 2026-04-13 19:29 |
|---|---|
| Airport | Port Gentil International Airport (FOOG) |
| Time | Latitude | Longitude | Altitude | Speed | Heading |
|---|---|---|---|---|---|
| 2026-04-13 17:34 | 0.45741 | 9.41065 | 50 ft | 0 kts | 64° |
| 2026-04-13 18:03 | 0.45742 | 9.41066 | 49 ft | 2 kts | 65° |
| 2026-04-13 18:03 | 0.45771 | 9.41118 | 49 ft | 11 kts | 50° |
| 2026-04-13 18:04 | 0.45816 | 9.41160 | 49 ft | 5 kts | 48° |
| 2026-04-13 18:04 | 0.45825 | 9.41182 | 49 ft | 1 kts | 70° |
| 2026-04-13 18:04 | 0.45835 | 9.41209 | 49 ft | 7 kts | 65° |
| 2026-04-13 18:04 | 0.45882 | 9.41232 | 50 ft | 7 kts | 345° |
| 2026-04-13 18:05 | 0.45917 | 9.41205 | 50 ft | 4 kts | 333° |
| 2026-04-13 18:05 | 0.45989 | 9.41173 | 50 ft | 29 kts | 336° |
| 2026-04-13 18:05 | 0.46369 | 9.40977 | 89 ft | 86 kts | 336° |
| 2026-04-13 18:05 | 0.46874 | 9.40709 | 451 ft | 89 kts | 333° |
| 2026-04-13 18:06 | 0.47484 | 9.40383 | 638 ft | 104 kts | 335° |
| 2026-04-13 18:06 | 0.48125 | 9.40019 | 869 ft | 108 kts | 333° |
| 2026-04-13 18:06 | 0.48798 | 9.39646 | 1006 ft | 114 kts | 323° |
| 2026-04-13 18:06 | 0.49132 | 9.38899 | 1078 ft | 124 kts | 273° |
| 2026-04-13 18:07 | 0.48827 | 9.38080 | 1152 ft | 129 kts | 232° |
| 2026-04-13 18:07 | 0.48068 | 9.37641 | 1333 ft | 124 kts | 192° |
| 2026-04-13 18:07 | 0.47220 | 9.37780 | 1411 ft | 128 kts | 153° |
| 2026-04-13 18:07 | 0.46455 | 9.38209 | 1606 ft | 121 kts | 150° |
| 2026-04-13 18:08 | 0.45695 | 9.38569 | 1788 ft | 121 kts | 154° |
| 2026-04-13 18:08 | 0.44907 | 9.38911 | 1906 ft | 124 kts | 153° |
| 2026-04-13 18:08 | 0.44163 | 9.39357 | 2002 ft | 124 kts | 143° |
| 2026-04-13 18:08 | 0.43424 | 9.39821 | 2113 ft | 124 kts | 152° |
| 2026-04-13 18:09 | 0.42629 | 9.40184 | 2201 ft | 125 kts | 154° |
| 2026-04-13 18:09 | 0.41835 | 9.40531 | 2326 ft | 123 kts | 155° |
| 2026-04-13 18:09 | 0.41076 | 9.40934 | 2441 ft | 122 kts | 147° |
| 2026-04-13 18:09 | 0.40372 | 9.41380 | 2566 ft | 119 kts | 146° |
| 2026-04-13 18:10 | 0.39661 | 9.41829 | 2646 ft | 121 kts | 148° |
| 2026-04-13 18:10 | 0.38905 | 9.42246 | 2723 ft | 123 kts | 154° |
| 2026-04-13 18:10 | 0.38094 | 9.42541 | 2852 ft | 124 kts | 161° |
| 2026-04-13 18:10 | 0.37295 | 9.42856 | 3009 ft | 121 kts | 155° |
| 2026-04-13 18:11 | 0.36568 | 9.43286 | 3123 ft | 122 kts | 148° |
| 2026-04-13 18:11 | 0.35859 | 9.43748 | 3261 ft | 120 kts | 149° |
| 2026-04-13 18:11 | 0.35146 | 9.44168 | 3436 ft | 117 kts | 147° |
| 2026-04-13 18:11 | 0.34597 | 9.44547 | 3527 ft | 121 kts | 147° |
| 2026-04-13 18:12 | 0.34409 | 9.44677 | 3640 ft | 124 kts | 146° |
| 2026-04-13 18:12 | 0.33675 | 9.45170 | 3619 ft | 128 kts | 147° |
| 2026-04-13 18:12 | 0.32952 | 9.45654 | 3612 ft | 123 kts | 147° |
| 2026-04-13 18:12 | 0.32246 | 9.46127 | 3612 ft | 119 kts | 147° |
| 2026-04-13 18:13 | 0.31569 | 9.46580 | 3613 ft | 116 kts | 147° |
| 2026-04-13 18:13 | 0.30875 | 9.47045 | 3472 ft | 132 kts | 147° |
| 2026-04-13 18:13 | 0.30136 | 9.47540 | 3593 ft | 127 kts | 146° |
| 2026-04-13 18:13 | 0.29392 | 9.48037 | 3613 ft | 130 kts | 146° |
| 2026-04-13 18:14 | 0.28621 | 9.48553 | 3615 ft | 133 kts | 146° |
| 2026-04-13 18:14 | 0.27850 | 9.49070 | 3615 ft | 134 kts | 146° |
| 2026-04-13 18:14 | 0.27062 | 9.49597 | 3614 ft | 134 kts | 146° |
| 2026-04-13 18:14 | 0.26284 | 9.50118 | 3614 ft | 135 kts | 146° |
| 2026-04-13 18:15 | 0.25507 | 9.50638 | 3614 ft | 135 kts | 146° |
| 2026-04-13 18:15 | 0.24723 | 9.51163 | 3614 ft | 135 kts | 146° |
| 2026-04-13 18:15 | 0.23942 | 9.51685 | 3614 ft | 135 kts | 146° |
| 2026-04-13 18:15 | 0.23173 | 9.52239 | 3614 ft | 135 kts | 142° |
| 2026-04-13 18:16 | 0.22422 | 9.52820 | 3614 ft | 135 kts | 142° |
| 2026-04-13 18:16 | 0.21683 | 9.53393 | 3614 ft | 135 kts | 142° |
| 2026-04-13 18:16 | 0.20933 | 9.53976 | 3614 ft | 135 kts | 142° |
| 2026-04-13 18:16 | 0.20193 | 9.54550 | 3614 ft | 135 kts | 142° |
| 2026-04-13 18:17 | 0.19447 | 9.55128 | 3614 ft | 135 kts | 142° |
| 2026-04-13 18:17 | 0.18700 | 9.55708 | 3614 ft | 135 kts | 142° |
| 2026-04-13 18:17 | 0.17961 | 9.56281 | 3614 ft | 135 kts | 142° |
| 2026-04-13 18:17 | 0.17212 | 9.56862 | 3614 ft | 135 kts | 142° |
| 2026-04-13 18:18 | 0.16463 | 9.57443 | 3614 ft | 135 kts | 142° |
| 2026-04-13 18:18 | 0.15717 | 9.58022 | 3614 ft | 135 kts | 142° |
| 2026-04-13 18:18 | 0.14967 | 9.58603 | 3614 ft | 135 kts | 142° |
| 2026-04-13 18:18 | 0.14225 | 9.59178 | 3614 ft | 135 kts | 142° |
| 2026-04-13 18:19 | 0.13473 | 9.59762 | 3614 ft | 135 kts | 142° |
| 2026-04-13 18:19 | 0.12728 | 9.60340 | 3614 ft | 135 kts | 142° |
| 2026-04-13 18:19 | 0.11984 | 9.60917 | 3614 ft | 135 kts | 142° |
| 2026-04-13 18:19 | 0.11232 | 9.61500 | 3614 ft | 135 kts | 142° |
| 2026-04-13 18:20 | 0.10495 | 9.62073 | 3614 ft | 135 kts | 142° |
| 2026-04-13 18:20 | 0.09742 | 9.62657 | 3614 ft | 135 kts | 142° |
| 2026-04-13 18:20 | 0.08998 | 9.63235 | 3614 ft | 135 kts | 142° |
| 2026-04-13 18:20 | 0.08255 | 9.63812 | 3614 ft | 135 kts | 142° |
| 2026-04-13 18:21 | 0.07508 | 9.64392 | 3614 ft | 135 kts | 142° |
| 2026-04-13 18:21 | 0.06759 | 9.64974 | 3614 ft | 135 kts | 142° |
| 2026-04-13 18:21 | 0.06008 | 9.65558 | 3614 ft | 135 kts | 142° |
| 2026-04-13 18:21 | 0.05266 | 9.66134 | 3614 ft | 135 kts | 142° |
| 2026-04-13 18:22 | 0.04522 | 9.66713 | 3614 ft | 135 kts | 142° |
| 2026-04-13 18:22 | 0.03771 | 9.67296 | 3614 ft | 135 kts | 142° |
| 2026-04-13 18:22 | 0.03026 | 9.67876 | 3614 ft | 135 kts | 142° |
| 2026-04-13 18:22 | 0.02272 | 9.68461 | 3614 ft | 135 kts | 142° |
| 2026-04-13 18:23 | 0.01532 | 9.69036 | 3614 ft | 135 kts | 142° |
| 2026-04-13 18:23 | 0.00784 | 9.69618 | 3614 ft | 135 kts | 142° |
| 2026-04-13 18:23 | 0.00048 | 9.70190 | 3614 ft | 135 kts | 142° |
| 2026-04-13 18:23 | -0.00347 | 9.70497 | 3614 ft | 135 kts | 142° |
| 2026-04-13 18:24 | -0.01036 | 9.71026 | 3614 ft | 135 kts | 142° |
| 2026-04-13 18:24 | -0.01792 | 9.71603 | 3614 ft | 136 kts | 142° |
| 2026-04-13 18:24 | -0.02541 | 9.72174 | 3614 ft | 136 kts | 142° |
| 2026-04-13 18:24 | -0.03302 | 9.72754 | 3614 ft | 136 kts | 142° |
| 2026-04-13 18:25 | -0.04054 | 9.73328 | 3614 ft | 136 kts | 142° |
| 2026-04-13 18:25 | -0.04818 | 9.73910 | 3614 ft | 136 kts | 142° |
| 2026-04-13 18:25 | -0.05573 | 9.74487 | 3614 ft | 136 kts | 142° |
| 2026-04-13 18:25 | -0.06325 | 9.75060 | 3614 ft | 136 kts | 142° |
| 2026-04-13 18:26 | -0.07084 | 9.75639 | 3614 ft | 136 kts | 142° |
| 2026-04-13 18:26 | -0.07832 | 9.76210 | 3614 ft | 136 kts | 142° |
| 2026-04-13 18:26 | -0.08591 | 9.76788 | 3614 ft | 136 kts | 142° |
| 2026-04-13 18:26 | -0.09354 | 9.77370 | 3614 ft | 136 kts | 142° |
| 2026-04-13 18:27 | -0.10111 | 9.77947 | 3614 ft | 136 kts | 142° |
| 2026-04-13 18:27 | -0.10867 | 9.78524 | 3614 ft | 136 kts | 142° |
| 2026-04-13 18:27 | -0.11620 | 9.79098 | 3614 ft | 136 kts | 142° |
| 2026-04-13 18:27 | -0.12378 | 9.79677 | 3614 ft | 136 kts | 142° |
| 2026-04-13 18:28 | -0.13136 | 9.80255 | 3614 ft | 136 kts | 142° |
| 2026-04-13 18:28 | -0.13894 | 9.80833 | 3614 ft | 136 kts | 142° |
| 2026-04-13 18:28 | -0.14649 | 9.81409 | 3614 ft | 136 kts | 142° |
| 2026-04-13 18:28 | -0.15400 | 9.81982 | 3614 ft | 136 kts | 142° |
| 2026-04-13 18:29 | -0.16158 | 9.82561 | 3614 ft | 136 kts | 142° |
| 2026-04-13 18:29 | -0.16919 | 9.83141 | 3614 ft | 136 kts | 142° |
| 2026-04-13 18:29 | -0.17668 | 9.83713 | 3614 ft | 136 kts | 142° |
| 2026-04-13 18:29 | -0.18429 | 9.84294 | 3614 ft | 136 kts | 142° |
| 2026-04-13 18:30 | -0.19184 | 9.84869 | 3614 ft | 136 kts | 142° |
| 2026-04-13 18:30 | -0.19937 | 9.85444 | 3614 ft | 136 kts | 142° |
| 2026-04-13 18:30 | -0.20696 | 9.86023 | 3614 ft | 136 kts | 142° |
| 2026-04-13 18:30 | -0.21455 | 9.86602 | 3614 ft | 136 kts | 142° |
| 2026-04-13 18:31 | -0.22207 | 9.87175 | 3614 ft | 136 kts | 142° |
| 2026-04-13 18:31 | -0.22967 | 9.87756 | 3614 ft | 136 kts | 142° |
| 2026-04-13 18:31 | -0.23724 | 9.88333 | 3614 ft | 136 kts | 142° |
| 2026-04-13 18:31 | -0.24477 | 9.88908 | 3614 ft | 136 kts | 142° |
| 2026-04-13 18:32 | -0.25242 | 9.89491 | 3614 ft | 136 kts | 142° |
| 2026-04-13 18:32 | -0.26001 | 9.90071 | 3614 ft | 136 kts | 142° |
| 2026-04-13 18:32 | -0.26750 | 9.90642 | 3614 ft | 136 kts | 142° |
| 2026-04-13 18:32 | -0.27514 | 9.91225 | 3614 ft | 136 kts | 142° |
| 2026-04-13 18:33 | -0.28268 | 9.91801 | 3614 ft | 136 kts | 142° |
| 2026-04-13 18:33 | -0.29030 | 9.92382 | 3614 ft | 136 kts | 142° |
| 2026-04-13 18:33 | -0.29780 | 9.92954 | 3614 ft | 136 kts | 142° |
| 2026-04-13 18:34 | -0.31292 | 9.94108 | 3614 ft | 136 kts | 142° |
| 2026-04-13 18:34 | -0.32054 | 9.94690 | 3614 ft | 136 kts | 142° |
| 2026-04-13 18:34 | -0.32807 | 9.95264 | 3614 ft | 136 kts | 142° |
| 2026-04-13 18:34 | -0.33563 | 9.95841 | 3614 ft | 136 kts | 142° |
| 2026-04-13 18:35 | -0.34320 | 9.96419 | 3614 ft | 136 kts | 142° |
| 2026-04-13 18:35 | -0.35073 | 9.96994 | 3614 ft | 136 kts | 142° |
| 2026-04-13 18:35 | -0.35835 | 9.97575 | 3614 ft | 136 kts | 142° |
| 2026-04-13 18:35 | -0.36585 | 9.98147 | 3614 ft | 136 kts | 142° |
| 2026-04-13 18:36 | -0.37344 | 9.98727 | 3614 ft | 136 kts | 142° |
| 2026-04-13 18:36 | -0.38100 | 9.99304 | 3614 ft | 136 kts | 142° |
| 2026-04-13 18:36 | -0.38860 | 9.99884 | 3614 ft | 136 kts | 142° |
| 2026-04-13 18:36 | -0.39618 | 10.00463 | 3614 ft | 136 kts | 142° |
| 2026-04-13 18:37 | -0.40117 | 10.00843 | 3614 ft | 136 kts | 142° |
| 2026-04-13 18:37 | -0.41124 | 10.01612 | 3614 ft | 136 kts | 142° |
| 2026-04-13 18:37 | -0.41883 | 10.02191 | 3614 ft | 136 kts | 142° |
| 2026-04-13 18:37 | -0.42645 | 10.02773 | 3614 ft | 136 kts | 142° |
| 2026-04-13 18:38 | -0.43397 | 10.03347 | 3614 ft | 136 kts | 142° |
| 2026-04-13 18:38 | -0.44148 | 10.03920 | 3614 ft | 136 kts | 142° |
| 2026-04-13 18:38 | -0.44878 | 10.04535 | 3614 ft | 136 kts | 135° |
| 2026-04-13 18:38 | -0.45555 | 10.05192 | 3614 ft | 136 kts | 135° |
| 2026-04-13 18:39 | -0.46238 | 10.05859 | 3614 ft | 136 kts | 135° |
| 2026-04-13 18:39 | -0.46924 | 10.06529 | 3614 ft | 136 kts | 135° |
| 2026-04-13 18:39 | -0.47601 | 10.07191 | 3614 ft | 136 kts | 135° |
| 2026-04-13 18:39 | -0.48283 | 10.07858 | 3614 ft | 136 kts | 135° |
| 2026-04-13 18:40 | -0.48964 | 10.08523 | 3614 ft | 136 kts | 135° |
| 2026-04-13 18:40 | -0.49641 | 10.09185 | 3614 ft | 136 kts | 135° |
| 2026-04-13 18:40 | -0.50318 | 10.09847 | 3614 ft | 136 kts | 135° |
| 2026-04-13 18:40 | -0.51035 | 10.10481 | 3614 ft | 136 kts | 139° |
| 2026-04-13 18:41 | -0.51756 | 10.11095 | 3614 ft | 136 kts | 139° |
| 2026-04-13 18:41 | -0.52484 | 10.11713 | 3614 ft | 136 kts | 139° |
| 2026-04-13 18:41 | -0.53212 | 10.12332 | 3614 ft | 136 kts | 139° |
| 2026-04-13 18:41 | -0.53933 | 10.12945 | 3614 ft | 136 kts | 139° |
| 2026-04-13 18:42 | -0.54664 | 10.13565 | 3614 ft | 136 kts | 139° |
| 2026-04-13 18:42 | -0.55385 | 10.14179 | 3614 ft | 136 kts | 139° |
| 2026-04-13 18:42 | -0.56110 | 10.14794 | 3613 ft | 136 kts | 139° |
| 2026-04-13 18:42 | -0.56843 | 10.15416 | 3512 ft | 137 kts | 139° |
| 2026-04-13 18:43 | -0.57570 | 10.16034 | 3410 ft | 134 kts | 139° |
| 2026-04-13 18:43 | -0.58275 | 10.16633 | 3310 ft | 133 kts | 139° |
| 2026-04-13 18:43 | -0.58985 | 10.17236 | 3209 ft | 132 kts | 139° |
| 2026-04-13 18:43 | -0.59685 | 10.17830 | 3132 ft | 131 kts | 139° |
| 2026-04-13 18:44 | -0.60389 | 10.18427 | 3123 ft | 134 kts | 139° |
| 2026-04-13 18:44 | -0.61113 | 10.19042 | 3121 ft | 137 kts | 139° |
| 2026-04-13 18:44 | -0.61846 | 10.19666 | 3120 ft | 138 kts | 139° |
| 2026-04-13 18:44 | -0.62582 | 10.20291 | 3120 ft | 138 kts | 139° |
| 2026-04-13 18:45 | -0.63311 | 10.20910 | 3120 ft | 138 kts | 139° |
| 2026-04-13 18:45 | -0.64048 | 10.21536 | 3120 ft | 138 kts | 139° |
| 2026-04-13 18:45 | -0.64851 | 10.22059 | 3121 ft | 137 kts | 156° |
| 2026-04-13 18:45 | -0.65724 | 10.22454 | 3120 ft | 138 kts | 155° |
| 2026-04-13 18:46 | -0.66601 | 10.22849 | 3120 ft | 138 kts | 156° |
| 2026-04-13 18:46 | -0.67489 | 10.23234 | 3120 ft | 138 kts | 156° |
| 2026-04-13 18:46 | -0.68375 | 10.23618 | 3120 ft | 138 kts | 156° |
| 2026-04-13 18:46 | -0.69286 | 10.23902 | 3113 ft | 138 kts | 181° |
| 2026-04-13 18:47 | -0.70149 | 10.23532 | 3119 ft | 138 kts | 226° |
| 2026-04-13 18:47 | -0.70514 | 10.22665 | 3123 ft | 137 kts | 265° |
| 2026-04-13 18:47 | -0.70549 | 10.21710 | 3077 ft | 141 kts | 268° |
| 2026-04-13 18:47 | -0.70576 | 10.20717 | 2980 ft | 144 kts | 268° |
| 2026-04-13 18:48 | -0.70603 | 10.19729 | 2877 ft | 139 kts | 268° |
| 2026-04-13 18:48 | -0.70630 | 10.18772 | 2773 ft | 134 kts | 268° |
| 2026-04-13 18:48 | -0.70656 | 10.17851 | 2672 ft | 132 kts | 268° |
| 2026-04-13 18:48 | -0.70681 | 10.16929 | 2625 ft | 131 kts | 268° |
| 2026-04-13 18:49 | -0.70706 | 10.16011 | 2622 ft | 135 kts | 268° |
| 2026-04-13 18:49 | -0.70732 | 10.15062 | 2621 ft | 137 kts | 268° |
| 2026-04-13 18:49 | -0.70758 | 10.14103 | 2620 ft | 138 kts | 268° |
| 2026-04-13 18:49 | -0.70784 | 10.13139 | 2620 ft | 138 kts | 268° |
| 2026-04-13 18:50 | -0.70810 | 10.12184 | 2620 ft | 138 kts | 268° |
| 2026-04-13 18:50 | -0.70837 | 10.11220 | 2620 ft | 138 kts | 268° |
| 2026-04-13 18:50 | -0.70864 | 10.10260 | 2620 ft | 138 kts | 268° |
| 2026-04-13 18:50 | -0.70890 | 10.09301 | 2620 ft | 138 kts | 268° |
| 2026-04-13 18:51 | -0.70917 | 10.08343 | 2620 ft | 138 kts | 268° |
| 2026-04-13 18:51 | -0.70943 | 10.07392 | 2620 ft | 138 kts | 268° |
| 2026-04-13 18:51 | -0.70970 | 10.06421 | 2620 ft | 138 kts | 268° |
| 2026-04-13 18:51 | -0.70996 | 10.05467 | 2620 ft | 138 kts | 268° |
| 2026-04-13 18:52 | -0.71023 | 10.04512 | 2620 ft | 138 kts | 268° |
| 2026-04-13 18:52 | -0.71050 | 10.03543 | 2620 ft | 138 kts | 268° |
| 2026-04-13 18:52 | -0.71076 | 10.02595 | 2620 ft | 138 kts | 268° |
| 2026-04-13 18:52 | -0.71104 | 10.01626 | 2620 ft | 138 kts | 268° |
| 2026-04-13 18:53 | -0.71130 | 10.00674 | 2620 ft | 138 kts | 268° |
| 2026-04-13 18:53 | -0.71157 | 9.99711 | 2620 ft | 138 kts | 268° |
| 2026-04-13 18:53 | -0.71184 | 9.98755 | 2620 ft | 138 kts | 268° |
| 2026-04-13 18:53 | -0.71212 | 9.97789 | 2620 ft | 138 kts | 268° |
| 2026-04-13 18:54 | -0.71238 | 9.96836 | 2620 ft | 138 kts | 268° |
| 2026-04-13 18:54 | -0.71266 | 9.95875 | 2620 ft | 138 kts | 268° |
| 2026-04-13 18:54 | -0.71293 | 9.94906 | 2620 ft | 138 kts | 268° |
| 2026-04-13 18:54 | -0.71320 | 9.93958 | 2620 ft | 138 kts | 268° |
| 2026-04-13 18:55 | -0.71347 | 9.92993 | 2620 ft | 138 kts | 268° |
| 2026-04-13 18:55 | -0.71375 | 9.92030 | 2620 ft | 138 kts | 268° |
| 2026-04-13 18:55 | -0.71402 | 9.91077 | 2620 ft | 138 kts | 268° |
| 2026-04-13 18:55 | -0.71429 | 9.90112 | 2620 ft | 138 kts | 268° |
| 2026-04-13 18:56 | -0.71457 | 9.89149 | 2620 ft | 138 kts | 268° |
| 2026-04-13 18:56 | -0.71448 | 9.88195 | 2620 ft | 138 kts | 271° |
| 2026-04-13 18:56 | -0.71426 | 9.87243 | 2620 ft | 138 kts | 271° |
| 2026-04-13 18:56 | -0.71403 | 9.86280 | 2620 ft | 138 kts | 271° |
| 2026-04-13 18:57 | -0.71380 | 9.85317 | 2620 ft | 138 kts | 271° |
| 2026-04-13 18:57 | -0.71357 | 9.84362 | 2620 ft | 138 kts | 271° |
| 2026-04-13 18:57 | -0.71334 | 9.83404 | 2620 ft | 138 kts | 271° |
| 2026-04-13 18:57 | -0.71312 | 9.82444 | 2620 ft | 138 kts | 271° |
| 2026-04-13 18:58 | -0.71289 | 9.81482 | 2620 ft | 138 kts | 271° |
| 2026-04-13 18:58 | -0.71266 | 9.80513 | 2620 ft | 138 kts | 271° |
| 2026-04-13 18:58 | -0.71243 | 9.79549 | 2620 ft | 138 kts | 271° |
| 2026-04-13 18:58 | -0.71220 | 9.78591 | 2620 ft | 138 kts | 271° |
| 2026-04-13 18:59 | -0.71198 | 9.77626 | 2620 ft | 138 kts | 271° |
| 2026-04-13 18:59 | -0.71175 | 9.76674 | 2620 ft | 138 kts | 271° |
| 2026-04-13 18:59 | -0.71153 | 9.75703 | 2620 ft | 138 kts | 271° |
| 2026-04-13 18:59 | -0.71130 | 9.74755 | 2620 ft | 138 kts | 271° |
| 2026-04-13 19:00 | -0.71115 | 9.74110 | 2620 ft | 138 kts | 271° |
| 2026-04-13 19:00 | -0.71086 | 9.72826 | 2620 ft | 138 kts | 271° |
| 2026-04-13 19:00 | -0.71063 | 9.71866 | 2620 ft | 138 kts | 271° |
| 2026-04-13 19:00 | -0.71041 | 9.70909 | 2620 ft | 138 kts | 271° |
| 2026-04-13 19:01 | -0.71019 | 9.69953 | 2620 ft | 138 kts | 271° |
| 2026-04-13 19:01 | -0.70997 | 9.68992 | 2620 ft | 138 kts | 271° |
| 2026-04-13 19:01 | -0.70975 | 9.68039 | 2620 ft | 138 kts | 271° |
| 2026-04-13 19:01 | -0.70952 | 9.67071 | 2620 ft | 138 kts | 271° |
| 2026-04-13 19:02 | -0.70930 | 9.66118 | 2620 ft | 138 kts | 271° |
| 2026-04-13 19:02 | -0.70908 | 9.65153 | 2620 ft | 138 kts | 271° |
| 2026-04-13 19:02 | -0.70886 | 9.64196 | 2620 ft | 138 kts | 271° |
| 2026-04-13 19:02 | -0.70864 | 9.63230 | 2620 ft | 138 kts | 271° |
| 2026-04-13 19:03 | -0.70842 | 9.62265 | 2620 ft | 138 kts | 271° |
| 2026-04-13 19:03 | -0.70821 | 9.61308 | 2620 ft | 138 kts | 271° |
| 2026-04-13 19:03 | -0.70799 | 9.60354 | 2620 ft | 138 kts | 271° |
| 2026-04-13 19:03 | -0.70777 | 9.59384 | 2620 ft | 138 kts | 271° |
| 2026-04-13 19:04 | -0.70755 | 9.58430 | 2620 ft | 138 kts | 271° |
| 2026-04-13 19:04 | -0.70734 | 9.57474 | 2620 ft | 138 kts | 271° |
| 2026-04-13 19:04 | -0.70712 | 9.56507 | 2619 ft | 138 kts | 271° |
| 2026-04-13 19:04 | -0.70691 | 9.55552 | 2620 ft | 138 kts | 271° |
| 2026-04-13 19:05 | -0.70670 | 9.54586 | 2620 ft | 138 kts | 271° |
| 2026-04-13 19:05 | -0.70649 | 9.53636 | 2620 ft | 138 kts | 271° |
| 2026-04-13 19:05 | -0.70628 | 9.52669 | 2620 ft | 138 kts | 271° |
| 2026-04-13 19:05 | -0.70607 | 9.51714 | 2620 ft | 138 kts | 271° |
| 2026-04-13 19:06 | -0.70586 | 9.50749 | 2620 ft | 138 kts | 271° |
| 2026-04-13 19:06 | -0.70565 | 9.49786 | 2620 ft | 138 kts | 271° |
| 2026-04-13 19:06 | -0.70544 | 9.48830 | 2620 ft | 138 kts | 271° |
| 2026-04-13 19:06 | -0.70523 | 9.47863 | 2620 ft | 138 kts | 271° |
| 2026-04-13 19:07 | -0.70501 | 9.46871 | 2620 ft | 138 kts | 271° |
| 2026-04-13 19:07 | -0.70479 | 9.45862 | 2620 ft | 138 kts | 271° |
| 2026-04-13 19:07 | -0.70457 | 9.44867 | 2620 ft | 138 kts | 271° |
| 2026-04-13 19:07 | -0.70435 | 9.43881 | 2620 ft | 138 kts | 271° |
| 2026-04-13 19:08 | -0.70414 | 9.42896 | 2620 ft | 138 kts | 271° |
| 2026-04-13 19:08 | -0.70392 | 9.41884 | 2620 ft | 138 kts | 271° |
| 2026-04-13 19:08 | -0.70371 | 9.40904 | 2620 ft | 138 kts | 271° |
| 2026-04-13 19:08 | -0.70350 | 9.39940 | 2620 ft | 138 kts | 271° |
| 2026-04-13 19:09 | -0.70330 | 9.38989 | 2620 ft | 138 kts | 271° |
| 2026-04-13 19:09 | -0.70309 | 9.38024 | 2619 ft | 138 kts | 271° |
| 2026-04-13 19:09 | -0.70288 | 9.37060 | 2620 ft | 138 kts | 271° |
| 2026-04-13 19:09 | -0.70268 | 9.36107 | 2620 ft | 138 kts | 271° |
| 2026-04-13 19:10 | -0.70248 | 9.35136 | 2620 ft | 138 kts | 271° |
| 2026-04-13 19:10 | -0.70227 | 9.34182 | 2620 ft | 138 kts | 271° |
| 2026-04-13 19:10 | -0.70207 | 9.33217 | 2620 ft | 138 kts | 271° |
| 2026-04-13 19:10 | -0.70187 | 9.32264 | 2620 ft | 138 kts | 271° |
| 2026-04-13 19:11 | -0.70167 | 9.31301 | 2620 ft | 138 kts | 271° |
| 2026-04-13 19:11 | -0.70147 | 9.30339 | 2620 ft | 138 kts | 271° |
| 2026-04-13 19:11 | -0.70127 | 9.29371 | 2620 ft | 138 kts | 271° |
| 2026-04-13 19:11 | -0.70107 | 9.28414 | 2620 ft | 138 kts | 271° |
| 2026-04-13 19:12 | -0.70087 | 9.27454 | 2620 ft | 138 kts | 271° |
| 2026-04-13 19:12 | -0.70068 | 9.26498 | 2620 ft | 138 kts | 271° |
| 2026-04-13 19:12 | -0.70048 | 9.25535 | 2620 ft | 138 kts | 271° |
| 2026-04-13 19:12 | -0.70028 | 9.24580 | 2620 ft | 138 kts | 271° |
| 2026-04-13 19:13 | -0.70008 | 9.23613 | 2620 ft | 138 kts | 271° |
| 2026-04-13 19:13 | -0.69989 | 9.22649 | 2620 ft | 138 kts | 271° |
| 2026-04-13 19:13 | -0.69969 | 9.21698 | 2620 ft | 138 kts | 271° |
| 2026-04-13 19:13 | -0.69949 | 9.20730 | 2620 ft | 138 kts | 271° |
| 2026-04-13 19:14 | -0.69930 | 9.19779 | 2620 ft | 138 kts | 271° |
| 2026-04-13 19:14 | -0.69911 | 9.18817 | 2620 ft | 138 kts | 271° |
| 2026-04-13 19:14 | -0.69891 | 9.17847 | 2620 ft | 138 kts | 271° |
| 2026-04-13 19:14 | -0.69872 | 9.16896 | 2620 ft | 138 kts | 271° |
| 2026-04-13 19:15 | -0.69853 | 9.15930 | 2620 ft | 138 kts | 271° |
| 2026-04-13 19:15 | -0.69833 | 9.14963 | 2620 ft | 138 kts | 271° |
| 2026-04-13 19:15 | -0.69814 | 9.14005 | 2620 ft | 138 kts | 271° |
| 2026-04-13 19:15 | -0.69795 | 9.13041 | 2620 ft | 138 kts | 271° |
| 2026-04-13 19:16 | -0.69776 | 9.12089 | 2620 ft | 138 kts | 271° |
| 2026-04-13 19:16 | -0.69757 | 9.11129 | 2620 ft | 138 kts | 271° |
| 2026-04-13 19:16 | -0.69738 | 9.10167 | 2620 ft | 138 kts | 271° |
| 2026-04-13 19:16 | -0.69719 | 9.09207 | 2620 ft | 138 kts | 271° |
| 2026-04-13 19:17 | -0.69700 | 9.08244 | 2620 ft | 138 kts | 271° |
| 2026-04-13 19:17 | -0.69681 | 9.07278 | 2620 ft | 138 kts | 271° |
| 2026-04-13 19:17 | -0.69662 | 9.06315 | 2620 ft | 138 kts | 271° |
| 2026-04-13 19:17 | -0.69643 | 9.05364 | 2620 ft | 138 kts | 271° |
| 2026-04-13 19:18 | -0.69625 | 9.04407 | 2620 ft | 138 kts | 271° |
| 2026-04-13 19:18 | -0.69607 | 9.03440 | 2620 ft | 138 kts | 271° |
| 2026-04-13 19:18 | -0.69587 | 9.02483 | 2620 ft | 138 kts | 271° |
| 2026-04-13 19:18 | -0.69568 | 9.01507 | 2547 ft | 142 kts | 271° |
| 2026-04-13 19:19 | -0.69548 | 9.00517 | 2522 ft | 141 kts | 271° |
| 2026-04-13 19:19 | -0.69480 | 8.99552 | 2519 ft | 139 kts | 277° |
| 2026-04-13 19:19 | -0.69362 | 8.98593 | 2519 ft | 138 kts | 277° |
| 2026-04-13 19:19 | -0.69242 | 8.97638 | 2519 ft | 138 kts | 277° |
| 2026-04-13 19:20 | -0.69123 | 8.96689 | 2519 ft | 138 kts | 277° |
| 2026-04-13 19:20 | -0.69005 | 8.95740 | 2519 ft | 138 kts | 277° |
| 2026-04-13 19:20 | -0.68885 | 8.94782 | 2519 ft | 138 kts | 277° |
| 2026-04-13 19:20 | -0.68766 | 8.93835 | 2519 ft | 138 kts | 277° |
| 2026-04-13 19:21 | -0.68650 | 8.92899 | 2462 ft | 130 kts | 277° |
| 2026-04-13 19:21 | -0.68541 | 8.92019 | 2336 ft | 127 kts | 277° |
| 2026-04-13 19:21 | -0.68432 | 8.91144 | 2211 ft | 127 kts | 277° |
| 2026-04-13 19:21 | -0.68323 | 8.90268 | 2086 ft | 126 kts | 277° |
| 2026-04-13 19:22 | -0.68218 | 8.89419 | 1954 ft | 119 kts | 277° |
| 2026-04-13 19:22 | -0.68118 | 8.88614 | 1826 ft | 116 kts | 277° |
| 2026-04-13 19:22 | -0.68019 | 8.87817 | 1699 ft | 114 kts | 277° |
| 2026-04-13 19:22 | -0.67923 | 8.87045 | 1575 ft | 113 kts | 277° |
| 2026-04-13 19:23 | -0.67827 | 8.86276 | 1562 ft | 101 kts | 277° |
| 2026-04-13 19:23 | -0.67744 | 8.85609 | 1523 ft | 94 kts | 277° |
| 2026-04-13 19:23 | -0.67665 | 8.84972 | 1517 ft | 89 kts | 277° |
| 2026-04-13 19:23 | -0.67589 | 8.84369 | 1517 ft | 86 kts | 277° |
| 2026-04-13 19:24 | -0.67515 | 8.83780 | 1518 ft | 85 kts | 277° |
| 2026-04-13 19:24 | -0.67442 | 8.83193 | 1518 ft | 84 kts | 277° |
| 2026-04-13 19:24 | -0.67369 | 8.82614 | 1519 ft | 84 kts | 277° |
| 2026-04-13 19:24 | -0.67297 | 8.82036 | 1519 ft | 83 kts | 277° |
| 2026-04-13 19:25 | -0.67224 | 8.81452 | 1521 ft | 85 kts | 277° |
| 2026-04-13 19:25 | -0.67148 | 8.80860 | 1521 ft | 86 kts | 278° |
| 2026-04-13 19:25 | -0.67080 | 8.80261 | 1528 ft | 86 kts | 276° |
| 2026-04-13 19:25 | -0.67011 | 8.79661 | 1504 ft | 89 kts | 276° |
| 2026-04-13 19:26 | -0.66965 | 8.79049 | 1546 ft | 85 kts | 274° |
| 2026-04-13 19:26 | -0.66934 | 8.78426 | 1483 ft | 93 kts | 271° |
| 2026-04-13 19:26 | -0.66963 | 8.77768 | 1379 ft | 98 kts | 259° |
| 2026-04-13 19:26 | -0.67258 | 8.77142 | 1268 ft | 100 kts | 231° |
| 2026-04-13 19:27 | -0.67851 | 8.76776 | 1140 ft | 99 kts | 201° |
| 2026-04-13 19:27 | -0.68430 | 8.76559 | 1028 ft | 84 kts | 201° |
| 2026-04-13 19:27 | -0.68974 | 8.76355 | 781 ft | 85 kts | 200° |
| 2026-04-13 19:27 | -0.69507 | 8.76139 | 524 ft | 78 kts | 203° |
| 2026-04-13 19:28 | -0.69994 | 8.75932 | 315 ft | 76 kts | 202° |
| 2026-04-13 19:28 | -0.70482 | 8.75732 | 123 ft | 74 kts | 203° |
| 2026-04-13 19:28 | -0.70934 | 8.75545 | 38 ft | 63 kts | 202° |
| 2026-04-13 19:28 | -0.71301 | 8.75388 | 20 ft | 52 kts | 203° |
| 2026-04-13 19:29 | -0.71590 | 8.75268 | 19 ft | 30 kts | 205° |
| 2026-04-13 19:29 | -0.71730 | 8.75230 | 18 ft | 19 kts | 172° |
| 2026-04-13 19:29 | -0.71816 | 8.75290 | 19 ft | 11 kts | 169° |
| 2026-04-13 19:29 | -0.71878 | 8.75279 | 20 ft | 8 kts | 200° |
| 2026-04-13 19:30 | -0.71955 | 8.75249 | 21 ft | 14 kts | 193° |
| 2026-04-13 19:30 | -0.72045 | 8.75259 | 23 ft | 10 kts | 183° |
| 2026-04-13 19:30 | -0.72086 | 8.75234 | 23 ft | 5 kts | 266° |
| 2026-04-13 19:30 | -0.72081 | 8.75222 | 23 ft | 0 kts | 300° |